createdAt,value
2023-05-20T06:14:34.377Z,12.95
2023-05-20T06:15:36.823Z,12.98
2023-05-20T06:16:39.558Z,13.04
2023-05-20T06:17:42.146Z,13.11
2023-05-20T06:18:47.392Z,13.18
2023-05-20T06:19:49.056Z,13.24
2023-05-20T06:20:56.411Z,13.36
2023-05-20T06:21:59.216Z,13.44
2023-05-20T06:23:01.918Z,13.52
2023-05-20T06:24:13.696Z,13.55
2023-05-20T06:25:15.850Z,13.70
2023-05-20T06:26:18.554Z,13.75
2023-05-20T06:27:20.316Z,13.83
2023-05-20T06:28:22.854Z,13.84
2023-05-20T06:29:24.608Z,13.78
2023-05-20T06:30:28.452Z,13.70
2023-05-20T06:31:30.292Z,13.67
2023-05-20T06:32:33.230Z,13.75
2023-05-20T06:33:35.223Z,13.85
2023-05-20T06:34:42.975Z,13.90
2023-05-20T06:35:44.683Z,13.96
2023-05-20T06:36:47.258Z,14.06
2023-05-20T06:37:49.525Z,14.13
2023-05-20T06:38:52.702Z,14.27
2023-05-20T06:39:54.942Z,14.45
2023-05-20T06:40:58.249Z,14.63
2023-05-20T06:41:59.906Z,14.81
2023-05-20T06:43:04.971Z,14.87
2023-05-20T06:44:22.571Z,15.01
2023-05-20T06:45:30.437Z,15.04
2023-05-20T06:46:49.133Z,14.99
2023-05-20T06:47:54.083Z,15.02
2023-05-20T06:48:55.815Z,15.07
2023-05-20T06:49:58.296Z,15.13
2023-05-20T06:51:00.721Z,15.10
2023-05-20T06:52:03.579Z,15.13
2023-05-20T06:53:05.189Z,15.21
2023-05-20T06:54:07.989Z,15.27
2023-05-20T06:55:09.994Z,15.28
2023-05-20T06:56:12.474Z,15.38
2023-05-20T06:57:14.093Z,15.39
2023-05-20T06:58:16.655Z,15.45
2023-05-20T06:59:18.330Z,15.46
2023-05-20T07:00:21.348Z,15.50
2023-05-20T07:01:24.363Z,15.49
2023-05-20T07:02:26.959Z,15.48
2023-05-20T07:03:28.793Z,15.44
2023-05-20T07:04:31.436Z,15.53
2023-05-20T07:05:33.386Z,15.57
2023-05-20T07:06:36.084Z,15.61
2023-05-20T07:07:38.322Z,15.54
2023-05-20T07:08:40.998Z,15.53
2023-05-20T07:09:43.190Z,15.67
2023-05-20T07:10:46.880Z,15.77
2023-05-20T07:11:51.277Z,15.82
2023-05-20T07:12:53.930Z,15.92
2023-05-20T07:13:55.682Z,15.93
2023-05-20T07:15:00.011Z,15.84
2023-05-20T07:16:01.735Z,15.91
2023-05-20T07:17:06.376Z,15.91
2023-05-20T07:18:08.330Z,15.97
2023-05-20T07:19:11.209Z,16.01
2023-05-20T07:20:13.158Z,16.02
2023-05-20T07:21:15.653Z,16.06
2023-05-20T07:22:26.287Z,16.17
2023-05-20T07:23:39.016Z,16.33
2023-05-20T07:24:40.802Z,16.46
2023-05-20T07:25:43.443Z,16.52
2023-05-20T07:26:45.725Z,16.72
2023-05-20T07:27:49.461Z,16.87
2023-05-20T07:28:51.875Z,16.97
2023-05-20T07:29:54.556Z,17.02
2023-05-20T07:30:57.822Z,17.10
2023-05-20T07:32:03.803Z,17.03
2023-05-20T07:33:06.911Z,17.09
2023-05-20T07:34:10.986Z,17.21
2023-05-20T07:35:12.665Z,17.23
2023-05-20T07:36:15.535Z,17.33
2023-05-20T07:37:20.796Z,17.49
2023-05-20T07:38:23.318Z,17.64
2023-05-20T07:39:32.707Z,17.77
2023-05-20T07:40:34.567Z,17.87
2023-05-20T07:41:37.213Z,17.94
2023-05-20T07:42:39.878Z,17.87
2023-05-20T07:43:42.424Z,17.84
2023-05-20T07:44:44.891Z,17.81
2023-05-20T07:45:47.468Z,17.83
2023-05-20T07:46:49.305Z,17.84
2023-05-20T07:47:51.997Z,17.85
2023-05-20T07:48:54.992Z,17.81
2023-05-20T07:49:57.681Z,17.79
2023-05-20T07:50:59.692Z,17.81
2023-05-20T07:52:03.412Z,17.82
2023-05-20T07:53:05.508Z,17.84
2023-05-20T07:54:09.688Z,17.94
2023-05-20T07:55:14.470Z,17.94
2023-05-20T07:56:17.277Z,17.92
2023-05-20T07:57:19.066Z,17.82
2023-05-20T07:58:21.913Z,17.72
2023-05-20T07:59:24.689Z,17.69
2023-05-20T08:00:27.900Z,17.74
2023-05-20T08:01:34.752Z,17.78
2023-05-20T08:02:38.277Z,17.81
2023-05-20T08:03:40.009Z,17.89
2023-05-20T08:04:48.297Z,17.86
2023-05-20T08:05:49.996Z,17.86
2023-05-20T08:06:53.406Z,17.66
2023-05-20T08:08:02.744Z,17.51
2023-05-20T08:09:12.590Z,17.42
2023-05-20T08:10:19.522Z,17.40
2023-05-20T08:11:22.732Z,17.41
2023-05-20T08:12:24.501Z,17.45
2023-05-20T08:13:27.159Z,17.46
2023-05-20T08:14:31.176Z,17.38
2023-05-20T08:15:34.245Z,17.34
2023-05-20T08:16:36.931Z,17.28
2023-05-20T08:17:39.719Z,17.32
2023-05-20T08:18:41.993Z,17.08
2023-05-20T08:19:44.513Z,17.00
2023-05-20T08:20:50.854Z,17.06
2023-05-20T08:21:54.259Z,17.03
2023-05-20T08:22:56.129Z,17.01
2023-05-20T08:23:59.715Z,17.04
2023-05-20T08:25:01.367Z,17.07
2023-05-20T08:26:04.192Z,17.16
2023-05-20T08:27:08.754Z,17.33
2023-05-20T08:28:10.394Z,17.35
2023-05-20T08:29:14.317Z,17.43
2023-05-20T08:30:15.936Z,17.54
2023-05-20T08:31:18.888Z,17.68
2023-05-20T08:32:20.965Z,17.95
2023-05-20T08:33:23.500Z,18.16
2023-05-20T08:34:25.290Z,18.28
2023-05-20T08:35:28.388Z,18.45
2023-05-20T08:36:32.890Z,18.49
2023-05-20T08:37:34.512Z,18.54
2023-05-20T08:38:37.545Z,18.50
2023-05-20T08:39:39.174Z,18.42
2023-05-20T08:40:42.659Z,18.33
2023-05-20T08:41:47.301Z,18.32
2023-05-20T08:42:53.538Z,18.34
2023-05-20T08:43:55.835Z,18.21
2023-05-20T08:45:00.397Z,18.01
2023-05-20T08:46:06.315Z,17.99
2023-05-20T08:47:11.730Z,17.92
2023-05-20T08:48:13.418Z,17.93
2023-05-20T08:49:16.157Z,17.99
2023-05-20T08:50:17.926Z,18.06
2023-05-20T08:51:23.920Z,18.07
2023-05-20T08:52:27.317Z,18.12
2023-05-20T08:53:30.397Z,18.13
2023-05-20T08:54:43.459Z,18.16
2023-05-20T08:55:49.450Z,18.22
2023-05-20T08:56:53.996Z,18.24
2023-05-20T08:57:57.135Z,18.24
2023-05-20T08:58:58.739Z,18.27
2023-05-20T09:00:01.553Z,18.29
2023-05-20T09:01:04.834Z,18.46
2023-05-20T09:02:06.670Z,18.60
2023-05-20T09:03:09.920Z,18.70
2023-05-20T09:04:11.768Z,18.78
2023-05-20T09:05:14.542Z,18.58
2023-05-20T09:06:17.306Z,18.51
2023-05-20T09:07:29.137Z,18.40
2023-05-20T09:08:32.076Z,18.41
2023-05-20T09:09:34.977Z,18.45
2023-05-20T09:10:38.945Z,18.27
2023-05-20T09:11:41.413Z,18.17
2023-05-20T09:12:44.278Z,18.28
2023-05-20T09:13:45.853Z,18.46
2023-05-20T09:14:48.602Z,18.54
2023-05-20T09:15:50.360Z,18.68
2023-05-20T09:16:52.965Z,18.80
2023-05-20T09:17:54.688Z,18.93
2023-05-20T09:18:57.313Z,18.97
2023-05-20T09:19:59.142Z,19.09
2023-05-20T09:21:06.714Z,19.06
2023-05-20T09:22:08.341Z,18.89
2023-05-20T09:23:12.508Z,18.90
2023-05-20T09:24:14.165Z,19.00
2023-05-20T09:25:22.261Z,19.08
2023-05-20T09:26:27.438Z,19.21
2023-05-20T09:27:30.004Z,19.08
2023-05-20T09:28:31.825Z,19.22
2023-05-20T09:29:34.869Z,19.22
2023-05-20T09:30:36.557Z,19.38
2023-05-20T09:31:39.609Z,19.48
2023-05-20T09:32:41.457Z,19.50
2023-05-20T09:33:44.509Z,19.53
2023-05-20T09:34:47.388Z,19.38
2023-05-20T09:35:50.776Z,19.34
2023-05-20T09:36:54.933Z,19.34
2023-05-20T09:37:58.696Z,19.16
2023-05-20T09:39:04.952Z,19.15
2023-05-20T09:40:10.112Z,19.09
2023-05-20T09:41:15.175Z,18.99
2023-05-20T09:42:23.408Z,18.85
2023-05-20T09:43:26.212Z,18.72
2023-05-20T09:44:28.955Z,18.77
2023-05-20T09:45:32.062Z,18.72
2023-05-20T09:46:34.543Z,18.85
2023-05-20T09:47:38.918Z,18.91
2023-05-20T09:48:40.600Z,18.95
2023-05-20T09:49:44.415Z,19.02
2023-05-20T09:50:46.598Z,19.16
2023-05-20T09:51:50.748Z,19.29
2023-05-20T09:52:54.020Z,19.36
2023-05-20T09:53:57.770Z,19.38
2023-05-20T09:55:02.734Z,19.26
2023-05-20T09:56:05.787Z,19.24
2023-05-20T09:57:07.816Z,19.18
2023-05-20T09:58:16.046Z,19.20
2023-05-20T09:59:21.756Z,18.96
2023-05-20T10:00:24.221Z,18.81
2023-05-20T10:01:26.087Z,18.74
2023-05-20T10:02:29.143Z,18.75
2023-05-20T10:03:34.089Z,18.57
2023-05-20T10:04:38.656Z,18.54
2023-05-20T10:05:45.023Z,18.53
2023-05-20T10:07:04.916Z,18.54
2023-05-20T10:08:27.384Z,18.72
2023-05-20T10:09:43.856Z,18.74
2023-05-20T10:10:52.980Z,18.81
2023-05-20T10:12:03.275Z,18.85
2023-05-20T10:13:17.641Z,18.92
2023-05-20T10:14:31.052Z,18.97
2023-05-20T10:15:44.169Z,18.95
2023-05-20T10:16:58.025Z,19.00
2023-05-20T10:18:27.744Z,19.02
2023-05-20T10:19:31.238Z,19.10
2023-05-20T10:20:33.987Z,19.16
2023-05-20T10:21:36.021Z,19.27
2023-05-20T10:22:40.562Z,19.33
2023-05-20T10:23:43.709Z,19.37
2023-05-20T10:24:46.240Z,19.40
2023-05-20T10:25:53.222Z,19.40
2023-05-20T10:26:56.329Z,19.46
2023-05-20T10:28:07.678Z,19.41
2023-05-20T10:29:16.342Z,19.47
2023-05-20T10:30:20.337Z,19.40
2023-05-20T10:31:24.133Z,19.28
2023-05-20T10:32:27.221Z,19.26
2023-05-20T10:33:30.753Z,19.34
2023-05-20T10:34:46.068Z,19.33
2023-05-20T10:35:51.746Z,19.31
2023-05-20T10:36:58.913Z,19.31
2023-05-20T10:38:09.305Z,19.40
2023-05-20T10:39:16.653Z,19.43
2023-05-20T10:40:20.575Z,19.46
2023-05-20T10:41:26.362Z,19.47
2023-05-20T10:42:29.471Z,19.54
2023-05-20T10:43:32.019Z,19.57
2023-05-20T10:44:44.819Z,19.57
2023-05-20T10:45:50.515Z,19.54
2023-05-20T10:47:23.721Z,19.49
2023-05-20T10:48:26.980Z,19.52
2023-05-20T10:49:34.860Z,19.59
2023-05-20T10:50:38.524Z,19.55
2023-05-20T10:51:41.898Z,19.63
2023-05-20T10:52:44.484Z,19.75
2023-05-20T10:53:46.648Z,19.80
2023-05-20T10:54:56.706Z,19.86
2023-05-20T10:55:58.341Z,19.93
2023-05-20T10:57:10.256Z,19.89
2023-05-20T10:58:11.965Z,19.75
2023-05-20T10:59:15.009Z,19.75
2023-05-20T11:00:16.703Z,19.77
2023-05-20T11:01:19.868Z,19.66
2023-05-20T11:02:26.560Z,19.69
2023-05-20T11:03:30.960Z,19.80
2023-05-20T11:04:32.932Z,19.86
2023-05-20T11:05:36.232Z,19.99
2023-05-20T11:06:37.829Z,20.19
2023-05-20T11:07:41.581Z,20.50
2023-05-20T11:08:43.996Z,20.63
2023-05-20T11:09:50.845Z,20.72
2023-05-20T11:10:52.669Z,20.85
2023-05-20T11:11:55.991Z,21.02
2023-05-20T11:12:59.119Z,21.19
2023-05-20T11:14:01.634Z,21.44
2023-05-20T11:15:03.686Z,21.59
2023-05-20T11:16:06.601Z,21.78
2023-05-20T11:17:08.500Z,21.97
2023-05-20T11:18:12.971Z,22.03
2023-05-20T11:19:15.538Z,21.41
2023-05-20T11:20:18.367Z,21.24
2023-05-20T11:21:20.224Z,21.09
2023-05-20T11:22:22.684Z,21.11
2023-05-20T11:23:26.285Z,21.18
2023-05-20T11:24:29.766Z,21.31
2023-05-20T11:25:33.260Z,21.20
2023-05-20T11:26:35.801Z,21.20
2023-05-20T11:27:42.832Z,21.15
2023-05-20T11:28:47.149Z,21.26
2023-05-20T11:29:50.620Z,21.41
2023-05-20T11:30:54.129Z,21.58
2023-05-20T11:31:56.107Z,21.62
2023-05-20T11:33:00.174Z,21.73
2023-05-20T11:34:02.307Z,21.80
2023-05-20T11:35:07.199Z,21.79
2023-05-20T11:36:20.237Z,21.60
2023-05-20T11:37:30.615Z,21.58
2023-05-20T11:38:32.517Z,21.60
2023-05-20T11:39:35.142Z,21.49
2023-05-20T11:40:49.717Z,21.36
2023-05-20T11:41:53.414Z,21.26
2023-05-20T11:42:58.863Z,21.16
2023-05-20T11:44:02.702Z,20.63
2023-05-20T11:45:04.924Z,20.43
2023-05-20T11:46:07.414Z,20.10
2023-05-20T11:47:09.099Z,20.04
2023-05-20T11:48:13.027Z,20.11
2023-05-20T11:49:15.243Z,20.32
2023-05-20T11:50:19.221Z,20.55
2023-05-20T11:51:24.885Z,20.79
2023-05-20T11:52:28.821Z,20.93
2023-05-20T11:53:31.629Z,20.81
2023-05-20T11:54:35.992Z,20.78
2023-05-20T11:55:47.302Z,20.89
2023-05-20T11:56:49.087Z,21.05
2023-05-20T11:57:51.895Z,21.10
2023-05-20T11:58:54.495Z,21.23
2023-05-20T11:59:57.392Z,21.20
2023-05-20T12:01:17.748Z,21.27
2023-05-20T12:02:24.609Z,21.39
2023-05-20T12:03:26.540Z,21.67
2023-05-20T12:04:29.271Z,21.89
2023-05-20T12:05:30.972Z,22.00
2023-05-20T12:06:33.685Z,22.00
2023-05-20T12:07:36.653Z,21.85
2023-05-20T12:08:39.135Z,21.64
2023-05-20T12:09:40.894Z,21.45
2023-05-20T12:10:44.780Z,21.30
2023-05-20T12:11:46.452Z,21.20
2023-05-20T12:12:48.908Z,21.11
2023-05-20T12:13:50.628Z,21.06
2023-05-20T12:14:53.143Z,21.09
2023-05-20T12:15:56.112Z,21.04
2023-05-20T12:16:59.689Z,20.94
2023-05-20T12:18:01.760Z,21.07
2023-05-20T12:19:05.045Z,21.17
2023-05-20T12:20:07.739Z,21.28
2023-05-20T12:21:10.340Z,21.56
2023-05-20T12:22:11.982Z,21.69
2023-05-20T12:23:14.549Z,21.80
2023-05-20T12:24:16.676Z,22.04
2023-05-20T12:25:21.514Z,22.21
2023-05-20T12:26:23.771Z,22.39
2023-05-20T12:27:26.467Z,22.45
2023-05-20T12:28:28.074Z,22.57
2023-05-20T12:29:30.627Z,22.58
2023-05-20T12:30:32.672Z,22.39
2023-05-20T12:31:36.539Z,22.15
2023-05-20T12:32:38.745Z,21.81
2023-05-20T12:33:41.186Z,21.90
2023-05-20T12:34:42.757Z,22.01
2023-05-20T12:35:46.596Z,22.13
2023-05-20T12:36:48.405Z,22.12
2023-05-20T12:37:50.957Z,22.11
2023-05-20T12:38:53.460Z,22.00
2023-05-20T12:39:55.228Z,21.95
2023-05-20T12:40:57.764Z,21.88
2023-05-20T12:41:59.429Z,21.82
2023-05-20T12:43:03.149Z,21.78
2023-05-20T12:44:05.289Z,21.75
2023-05-20T12:45:09.394Z,21.83
2023-05-20T12:46:11.016Z,21.66
2023-05-20T12:47:14.906Z,21.62
2023-05-20T12:48:16.720Z,21.59
2023-05-20T12:49:19.154Z,21.63
2023-05-20T12:50:20.932Z,21.72
2023-05-20T12:51:23.378Z,21.74
2023-05-20T12:52:25.609Z,21.72
2023-05-20T12:53:28.189Z,21.74
2023-05-20T12:54:30.052Z,21.61
2023-05-20T12:55:32.585Z,21.56
2023-05-20T12:56:34.206Z,21.53
2023-05-20T12:57:36.702Z,21.40
2023-05-20T12:58:39.146Z,21.33
2023-05-20T12:59:40.781Z,21.25
2023-05-20T13:00:43.327Z,21.24
2023-05-20T13:01:44.979Z,21.32
2023-05-20T13:02:49.132Z,21.31
2023-05-20T13:03:53.260Z,21.49
2023-05-20T13:04:56.032Z,21.72
2023-05-20T13:05:59.185Z,21.78
2023-05-20T13:07:00.802Z,21.77
2023-05-20T13:08:03.336Z,21.71
2023-05-20T13:09:05.145Z,21.65
2023-05-20T13:10:10.349Z,21.52
2023-05-20T13:11:12.051Z,21.39
2023-05-20T13:12:14.638Z,21.30
2023-05-20T13:13:21.400Z,21.35
2023-05-20T13:14:24.294Z,21.36
2023-05-20T13:15:25.872Z,21.42
2023-05-20T13:16:28.666Z,21.43
2023-05-20T13:17:30.851Z,21.50
2023-05-20T13:18:34.810Z,21.64
2023-05-20T13:19:37.740Z,21.77
2023-05-20T13:20:40.461Z,21.82
2023-05-20T13:21:42.050Z,21.97
2023-05-20T13:22:44.565Z,22.09
2023-05-20T13:23:46.249Z,22.23
2023-05-20T13:24:48.715Z,22.33
2023-05-20T13:25:50.239Z,22.26
2023-05-20T13:26:52.841Z,22.25
2023-05-20T13:27:54.378Z,22.08
2023-05-20T13:28:56.914Z,22.08
2023-05-20T13:29:58.546Z,22.13
2023-05-20T13:31:02.431Z,22.11
2023-05-20T13:32:04.697Z,22.09
2023-05-20T13:33:07.255Z,22.06
2023-05-20T13:34:10.289Z,22.01
2023-05-20T13:35:14.519Z,21.98
2023-05-20T13:36:16.204Z,22.01
2023-05-20T13:37:18.773Z,21.90
2023-05-20T13:38:20.409Z,21.80
2023-05-20T13:39:22.920Z,21.77
2023-05-20T13:40:40.435Z,21.49
2023-05-20T13:41:50.776Z,21.22
2023-05-20T13:42:58.307Z,21.13
2023-05-20T13:44:16.715Z,21.19
2023-05-20T13:45:25.778Z,21.38
2023-05-20T13:46:30.516Z,21.46
2023-05-20T13:47:33.899Z,21.40
2023-05-20T13:48:38.462Z,21.43
2023-05-20T13:49:43.134Z,21.51
2023-05-20T13:50:47.741Z,21.58
2023-05-20T13:51:51.270Z,21.64
2023-05-20T13:52:56.125Z,21.62
2023-05-20T13:53:59.664Z,21.58
2023-05-20T13:55:04.139Z,21.57
2023-05-20T13:56:09.861Z,21.47
2023-05-20T13:57:14.040Z,21.33
2023-05-20T13:58:17.428Z,21.26
2023-05-20T13:59:21.851Z,21.23
2023-05-20T14:00:25.332Z,21.27
2023-05-20T14:01:30.422Z,21.22
2023-05-20T14:02:33.360Z,21.26
2023-05-20T14:03:39.111Z,21.27
2023-05-20T14:04:45.328Z,21.39
2023-05-20T14:05:49.732Z,21.55
2023-05-20T14:06:53.176Z,21.62
2023-05-20T14:07:58.169Z,21.87
2023-05-20T14:09:02.639Z,22.14
2023-05-20T14:10:07.024Z,22.37
2023-05-20T14:11:11.545Z,22.54
2023-05-20T14:12:14.860Z,22.69
2023-05-20T14:13:19.316Z,22.74
2023-05-20T14:14:23.293Z,22.64
2023-05-20T14:15:31.077Z,22.58
2023-05-20T14:16:35.923Z,22.57
2023-05-20T14:17:39.265Z,22.55
2023-05-20T14:18:44.464Z,22.48
2023-05-20T14:19:50.151Z,22.56
2023-05-20T14:20:54.507Z,22.50
2023-05-20T14:22:01.552Z,22.57
2023-05-20T14:23:04.770Z,22.61
2023-05-20T14:24:09.291Z,22.54
2023-05-20T14:25:12.543Z,22.53
2023-05-20T14:26:16.814Z,22.34
2023-05-20T14:27:20.334Z,22.37
2023-05-20T14:28:25.855Z,22.41
2023-05-20T14:29:29.094Z,22.47
2023-05-20T14:30:34.143Z,22.50
2023-05-20T14:31:39.031Z,22.34
2023-05-20T14:32:43.377Z,22.31
2023-05-20T14:33:46.681Z,22.23
2023-05-20T14:34:54.109Z,22.01
2023-05-20T14:35:58.586Z,21.87
2023-05-20T14:37:08.132Z,21.80
2023-05-20T14:38:13.268Z,21.77
2023-05-20T14:39:18.003Z,21.88
2023-05-20T20:46:38.262Z,16.09
2023-05-20T20:47:41.950Z,16.09
2023-05-20T20:48:47.315Z,16.06
2023-05-20T20:49:50.349Z,16.05
2023-05-20T20:50:54.845Z,16.05
2023-05-20T20:51:58.250Z,16.05
2023-05-20T20:53:02.845Z,16.04
2023-05-20T20:54:08.394Z,16.03
2023-05-20T20:55:13.473Z,15.97
2023-05-20T20:56:18.135Z,15.92
2023-05-20T20:57:22.743Z,15.92
2023-05-20T20:58:27.400Z,15.91
2023-05-20T20:59:30.922Z,15.82
2023-05-20T21:00:37.328Z,15.84
2023-05-20T21:01:42.544Z,15.84
2023-05-20T21:02:47.402Z,15.84
2023-05-20T21:03:54.784Z,15.82
2023-05-20T21:04:59.468Z,15.80
2023-05-20T21:06:02.823Z,15.77
2023-05-20T21:07:05.461Z,15.75
2023-05-20T21:08:10.065Z,15.73
2023-05-20T21:09:12.657Z,15.71
2023-05-20T21:10:15.767Z,15.69
2023-05-20T21:11:17.811Z,15.64
2023-05-20T21:12:20.863Z,15.64
2023-05-20T21:13:23.646Z,15.62
2023-05-20T21:14:27.407Z,15.62
2023-05-20T21:15:29.153Z,15.55
2023-05-20T21:16:32.263Z,15.48
2023-05-20T21:17:36.246Z,15.50
2023-05-20T21:18:39.131Z,15.50
2023-05-20T21:19:41.371Z,15.51
2023-05-20T21:20:44.684Z,15.51
2023-05-20T21:21:46.500Z,15.52
2023-05-20T21:22:49.219Z,15.51
2023-05-20T21:23:52.065Z,15.50
2023-05-20T21:24:54.824Z,15.50
2023-05-20T21:25:57.765Z,15.48
2023-05-20T21:26:59.837Z,15.46
2023-05-20T21:28:02.645Z,15.45
2023-05-20T21:29:05.992Z,15.43
2023-05-20T21:30:10.053Z,15.40
2023-05-20T21:31:11.838Z,15.40
2023-05-20T21:32:14.672Z,15.38
2023-05-20T21:33:17.735Z,15.37
2023-05-20T21:34:20.460Z,15.35
2023-05-20T21:35:22.281Z,15.35
2023-05-20T21:36:25.047Z,15.33
2023-05-20T21:37:26.837Z,15.29
2023-05-20T21:38:29.549Z,15.29
2023-05-20T21:39:32.240Z,15.25
2023-05-20T21:40:34.959Z,15.21
2023-05-20T21:41:37.643Z,15.18
2023-05-20T21:42:40.315Z,15.16
2023-05-20T21:43:42.975Z,15.15
2023-05-20T21:44:44.768Z,15.14
2023-05-20T21:45:48.123Z,15.13
2023-05-20T21:46:50.954Z,15.11
2023-05-20T21:47:53.925Z,15.09
2023-05-20T21:48:56.955Z,15.08
2023-05-20T21:49:59.738Z,15.06
2023-05-20T21:51:01.525Z,15.05
2023-05-20T21:52:04.256Z,15.04
2023-05-20T21:53:06.091Z,15.03
2023-05-20T21:54:08.809Z,14.97
2023-05-20T21:55:10.961Z,14.91
2023-05-20T21:56:13.701Z,14.91
2023-05-20T21:57:15.549Z,14.92
2023-05-20T21:58:18.247Z,14.91
2023-05-20T21:59:20.050Z,14.90
2023-05-20T22:00:23.772Z,14.89
2023-05-20T22:01:26.751Z,14.87
2023-05-20T22:02:29.551Z,14.86
2023-05-20T22:03:32.971Z,14.84
2023-05-20T22:04:37.277Z,14.84
2023-05-20T22:05:39.944Z,14.83
2023-05-20T22:06:41.654Z,14.81
2023-05-20T22:07:45.325Z,14.79
2023-05-20T22:08:47.351Z,14.76
2023-05-20T22:09:50.040Z,14.75
2023-05-20T22:10:51.907Z,14.74
2023-05-20T22:11:55.137Z,14.73
2023-05-20T22:12:57.975Z,14.73
2023-05-20T22:14:00.740Z,14.73
2023-05-20T22:15:02.573Z,14.72
2023-05-20T22:16:05.491Z,14.70
2023-05-20T22:17:07.388Z,14.67
2023-05-20T22:18:12.246Z,14.66
2023-05-20T22:19:15.219Z,14.65
2023-05-20T22:20:19.689Z,14.64
2023-05-20T22:21:21.448Z,14.63
2023-05-20T22:22:24.172Z,14.62
2023-05-20T22:23:26.695Z,14.60
2023-05-20T22:24:29.372Z,14.53
2023-05-20T22:25:31.571Z,14.51
2023-05-20T22:26:34.593Z,14.48
2023-05-20T22:27:36.345Z,14.46
2023-05-20T22:28:39.209Z,14.43
2023-05-20T22:29:40.941Z,14.42
2023-05-20T22:30:43.665Z,14.41
2023-05-20T22:31:46.388Z,14.40
2023-05-20T22:32:48.231Z,14.37
2023-05-20T22:33:51.009Z,14.34
2023-05-20T22:34:53.428Z,14.28
2023-05-20T22:35:58.050Z,14.26
2023-05-20T22:36:59.996Z,14.23
2023-05-20T22:38:02.644Z,14.20
2023-05-20T22:39:06.557Z,14.19
2023-05-20T22:40:10.787Z,14.18
2023-05-20T22:41:12.586Z,14.17
2023-05-20T22:42:15.406Z,14.17
2023-05-20T22:43:17.125Z,14.17
2023-05-20T22:44:20.082Z,14.16
2023-05-20T22:45:21.832Z,14.12
2023-05-20T22:46:24.699Z,14.09
2023-05-20T22:47:26.904Z,14.09
2023-05-20T22:48:30.471Z,14.08
2023-05-20T22:49:32.625Z,14.05
2023-05-20T22:50:35.517Z,14.03
2023-05-20T22:51:38.591Z,14.01
2023-05-20T22:52:41.395Z,13.96
2023-05-20T22:53:43.140Z,13.94
2023-05-20T22:54:46.027Z,13.91
